Time;durP1;ratioP1;P1;durP2;ratioP2;P2;SDS_P1;SDS_P2;PMS_P1;PMS_P2;Temp;Humidity;BMP_temperature;BMP_pressure;BME280_temperature;BME280_humidity;BME280_pressure;Samples;Min_cycle;Max_cycle;Signal;HPM_P1;HPM_P2
2023/07/02 00:00:24;;;;;;;21.75;6.47;;;;;;;;;;5015253;28;20022;-73
2023/07/02 00:02:50;;;;;;;19.45;6.70;;;;;;;;;;5021815;28;20026;-74
2023/07/02 00:05:17;;;;;;;15.98;5.97;;;;;;;;;;5034636;28;20108;-73
2023/07/02 00:07:43;;;;;;;17.35;6.53;;;;;;;;;;5034910;28;20045;-73
2023/07/02 00:10:10;;;;;;;23.48;6.80;;;;;;;;;;5034100;28;20032;-73
2023/07/02 00:12:36;;;;;;;16.67;6.22;;;;;;;;;;5015061;28;20056;-73
2023/07/02 00:15:03;;;;;;;17.95;6.93;;;;;;;;;;5015522;28;20034;-73
2023/07/02 00:17:29;;;;;;;21.77;6.75;;;;;;;;;;5026852;28;20109;-73
2023/07/02 00:19:55;;;;;;;21.40;6.57;;;;;;;;;;5015199;28;20022;-73
2023/07/02 00:22:21;;;;;;;23.48;6.72;;;;;;;;;;5034278;28;20033;-73
2023/07/02 00:24:47;;;;;;;18.38;6.55;;;;;;;;;;5021091;28;20444;-73
2023/07/02 00:27:14;;;;;;;20.00;7.60;;;;;;;;;;5034092;28;20049;-73
2023/07/02 00:29:39;;;;;;;17.42;6.75;;;;;;;;;;5032224;28;20067;-73
2023/07/02 00:32:06;;;;;;;19.52;5.90;;;;;;;;;;5001514;28;20030;-73
2023/07/02 00:34:32;;;;;;;18.95;6.45;;;;;;;;;;5014316;28;20034;-73
2023/07/02 00:36:58;;;;;;;17.33;6.43;;;;;;;;;;5014174;28;20041;-73
2023/07/02 00:39:24;;;;;;;20.15;6.15;;;;;;;;;;5014596;28;20022;-73
2023/07/02 00:41:50;;;;;;;19.42;6.60;;;;;;;;;;5033936;28;20025;-73
2023/07/02 00:44:17;;;;;;;21.50;7.22;;;;;;;;;;5033839;28;20025;-73
2023/07/02 00:46:43;;;;;;;19.98;6.32;;;;;;;;;;5015399;28;20096;-73
2023/07/02 00:49:10;;;;;;;19.40;6.55;;;;;;;;;;5028994;28;20488;-73
2023/07/02 00:51:37;;;;;;;23.33;6.25;;;;;;;;;;5033732;28;20025;-73
2023/07/02 00:54:03;;;;;;;17.27;6.85;;;;;;;;;;5023909;28;20028;-73
2023/07/02 00:56:29;;;;;;;19.60;6.72;;;;;;;;;;5013987;28;20125;-73
2023/07/02 00:58:58;;;;;;;19.27;5.75;;;;;;;;;;5014082;28;20405;-73
2023/07/02 01:01:25;;;;;;;20.35;6.40;;;;;;;;;;5014059;28;20467;-73
2023/07/02 01:03:59;;;;;;;21.00;5.88;;;;;;;;;;5033508;28;20021;-73
2023/07/02 01:06:30;;;;;;;18.50;6.13;;;;;;;;;;5031915;28;20144;-73
2023/07/02 01:08:57;;;;;;;23.42;6.85;;;;;;;;;;5022464;28;20025;-73
2023/07/02 01:11:30;;;;;;;19.70;6.22;;;;;;;;;;5017691;28;20030;-73
2023/07/02 01:14:02;;;;;;;20.98;6.45;;;;;;;;;;5023226;28;20033;-73
2023/07/02 01:16:30;;;;;;;20.27;6.10;;;;;;;;;;5016491;28;20108;-73
2023/07/02 01:18:56;;;;;;;25.35;5.95;;;;;;;;;;5013838;28;20026;-73
2023/07/02 01:21:24;;;;;;;14.30;4.95;;;;;;;;;;5013431;28;20026;-73
2023/07/02 01:23:50;;;;;;;21.70;6.28;;;;;;;;;;5026629;28;20494;-73
2023/07/02 01:26:16;;;;;;;24.15;6.65;;;;;;;;;;5013340;28;20038;-73
2023/07/02 01:28:49;;;;;;;16.33;5.80;;;;;;;;;;5013441;28;20032;-73
2023/07/02 01:31:15;;;;;;;19.23;6.57;;;;;;;;;;5013437;28;20022;-73
2023/07/02 01:33:42;;;;;;;21.90;6.70;;;;;;;;;;5013315;28;20491;-73
2023/07/02 01:36:08;;;;;;;19.20;6.65;;;;;;;;;;5013166;28;20033;-73
2023/07/02 01:38:34;;;;;;;20.25;6.90;;;;;;;;;;5013173;28;20026;-73
2023/07/02 01:41:00;;;;;;;17.58;6.68;;;;;;;;;;5013639;28;20029;-73
2023/07/02 01:43:26;;;;;;;17.65;6.88;;;;;;;;;;5031389;28;20030;-73
2023/07/02 01:45:52;;;;;;;25.17;6.82;;;;;;;;;;5032663;28;20067;-73
2023/07/02 01:48:18;;;;;;;17.73;6.53;;;;;;;;;;5032671;28;20467;-73
2023/07/02 01:50:43;;;;;;;16.70;5.70;;;;;;;;;;5032692;28;20036;-73
2023/07/02 01:53:09;;;;;;;18.58;6.13;;;;;;;;;;5013094;28;20026;-73
2023/07/02 01:55:35;;;;;;;21.52;6.53;;;;;;;;;;5012867;28;20484;-73
2023/07/02 01:58:01;;;;;;;20.00;6.03;;;;;;;;;;5012374;28;20053;-73
2023/07/02 02:00:27;;;;;;;15.13;5.65;;;;;;;;;;5012797;28;20080;-73
2023/07/02 02:02:53;;;;;;;22.80;6.70;;;;;;;;;;5012889;28;20036;-73
2023/07/02 02:05:19;;;;;;;22.30;6.88;;;;;;;;;;5012720;28;20563;-73
2023/07/02 02:07:45;;;;;;;20.90;6.32;;;;;;;;;;5012394;28;20125;-73
2023/07/02 02:10:11;;;;;;;22.65;6.38;;;;;;;;;;5012312;28;20461;-73
2023/07/02 02:12:38;;;;;;;18.88;6.43;;;;;;;;;;5031003;28;20029;-73
2023/07/02 02:15:04;;;;;;;25.10;6.65;;;;;;;;;;5032377;28;20511;-73
2023/07/02 02:17:30;;;;;;;17.00;5.82;;;;;;;;;;5032674;28;20029;-73
2023/07/02 02:19:56;;;;;;;20.95;6.40;;;;;;;;;;5032609;28;20029;-73
2023/07/02 02:22:22;;;;;;;23.23;7.60;;;;;;;;;;5032313;28;20075;-73
2023/07/02 02:24:48;;;;;;;17.52;6.22;;;;;;;;;;5020080;28;20053;-73
2023/07/02 02:27:14;;;;;;;22.05;7.22;;;;;;;;;;5012456;28;20034;-73
2023/07/02 02:29:40;;;;;;;25.42;6.18;;;;;;;;;;5012462;28;20350;-73
2023/07/02 02:32:06;;;;;;;19.00;6.03;;;;;;;;;;5012533;28;20033;-73
2023/07/02 02:34:32;;;;;;;18.30;5.65;;;;;;;;;;5011165;28;20136;-73
2023/07/02 02:36:58;;;;;;;16.60;4.90;;;;;;;;;;5012461;28;20141;-73
2023/07/02 02:39:24;;;;;;;15.00;6.13;;;;;;;;;;5024886;28;20511;-73
2023/07/02 02:41:50;;;;;;;17.40;5.30;;;;;;;;;;5032022;28;20029;-73
2023/07/02 02:44:16;;;;;;;17.77;5.38;;;;;;;;;;5032149;28;20029;-73
2023/07/02 02:46:42;;;;;;;18.55;5.60;;;;;;;;;;5032034;28;20581;-73
2023/07/02 02:49:08;;;;;;;17.63;6.63;;;;;;;;;;5032118;28;20018;-73
2023/07/02 02:51:34;;;;;;;17.88;5.75;;;;;;;;;;5026197;28;20380;-73
2023/07/02 02:54:00;;;;;;;17.15;5.40;;;;;;;;;;5012145;28;20152;-73
2023/07/02 02:56:26;;;;;;;20.30;5.82;;;;;;;;;;5017275;28;20033;-73
2023/07/02 02:58:52;;;;;;;21.52;6.88;;;;;;;;;;5030669;28;20060;-73
2023/07/02 03:01:19;;;;;;;19.70;5.70;;;;;;;;;;5032004;28;20049;-73
2023/07/02 03:03:45;;;;;;;15.00;5.88;;;;;;;;;;5029361;28;20093;-73
2023/07/02 03:06:14;;;;;;;20.90;6.43;;;;;;;;;;5012018;28;20049;-73
2023/07/02 03:08:41;;;;;;;27.25;6.40;;;;;;;;;;5011809;28;20488;-73
2023/07/02 03:11:07;;;;;;;20.17;6.10;;;;;;;;;;5011972;28;20446;-73
2023/07/02 03:13:33;;;;;;;17.67;6.22;;;;;;;;;;5024816;28;20508;-73
2023/07/02 03:15:59;;;;;;;22.77;5.93;;;;;;;;;;5019000;28;20026;-73
2023/07/02 03:18:25;;;;;;;18.65;6.30;;;;;;;;;;5031688;28;20024;-73
2023/07/02 03:20:51;;;;;;;17.77;5.53;;;;;;;;;;5034050;28;20065;-73
2023/07/02 03:23:17;;;;;;;23.25;6.60;;;;;;;;;;5035321;28;20076;-73
2023/07/02 03:25:43;;;;;;;22.08;6.95;;;;;;;;;;5035237;28;20580;-73
2023/07/02 03:28:09;;;;;;;20.63;5.57;;;;;;;;;;5035575;28;20388;-73
2023/07/02 03:30:35;;;;;;;17.20;5.85;;;;;;;;;;5035216;28;20059;-73
2023/07/02 03:33:01;;;;;;;20.20;6.03;;;;;;;;;;5035297;28;20040;-73
2023/07/02 03:35:27;;;;;;;15.73;5.20;;;;;;;;;;5015357;28;20030;-74
2023/07/02 03:37:53;;;;;;;13.48;4.78;;;;;;;;;;5014005;28;20068;-74
2023/07/02 03:40:19;;;;;;;16.23;4.45;;;;;;;;;;5015313;28;20464;-74
2023/07/02 03:42:45;;;;;;;12.50;4.82;;;;;;;;;;5028065;28;20029;-73
2023/07/02 03:45:11;;;;;;;13.70;5.78;;;;;;;;;;5034995;28;20147;-74
2023/07/02 03:47:37;;;;;;;14.07;3.95;;;;;;;;;;5034826;28;20037;-74
2023/07/02 03:50:04;;;;;;;18.15;4.50;;;;;;;;;;5015212;28;20022;-74
2023/07/02 03:52:30;;;;;;;10.50;4.40;;;;;;;;;;5015045;28;20033;-74
2023/07/02 03:54:56;;;;;;;10.60;4.18;;;;;;;;;;5021153;28;20025;-73
2023/07/02 03:57:22;;;;;;;12.23;3.63;;;;;;;;;;5034488;28;20084;-74
2023/07/02 03:59:48;;;;;;;13.20;4.15;;;;;;;;;;5015320;28;20431;-74
2023/07/02 04:02:14;;;;;;;14.90;5.00;;;;;;;;;;5015210;28;20017;-74
2023/07/02 04:04:40;;;;;;;13.88;3.97;;;;;;;;;;4995189;28;20451;-74
2023/07/02 04:07:06;;;;;;;12.43;4.20;;;;;;;;;;4995138;28;20038;-74
2023/07/02 04:09:32;;;;;;;13.60;4.10;;;;;;;;;;5034294;28;20029;-73
2023/07/02 04:11:59;;;;;;;12.57;4.20;;;;;;;;;;5034804;28;20048;-74
2023/07/02 04:14:25;;;;;;;17.13;4.30;;;;;;;;;;5034442;28;20029;-74
2023/07/02 04:16:51;;;;;;;15.55;4.85;;;;;;;;;;5034250;28;20025;-74
2023/07/02 04:19:16;;;;;;;15.15;4.78;;;;;;;;;;5014555;28;20625;-73
2023/07/02 04:21:43;;;;;;;12.65;4.90;;;;;;;;;;5027388;28;20026;-74
2023/07/02 04:24:09;;;;;;;16.42;4.80;;;;;;;;;;5014178;28;20065;-73
2023/07/02 04:26:36;;;;;;;15.38;4.72;;;;;;;;;;5014568;28;20388;-73
2023/07/02 04:29:02;;;;;;;12.60;4.53;;;;;;;;;;5033700;28;20053;-73
2023/07/02 04:31:28;;;;;;;14.82;5.20;;;;;;;;;;5020598;28;20017;-73
2023/07/02 04:33:54;;;;;;;13.18;4.18;;;;;;;;;;5021056;28;20026;-73
2023/07/02 04:36:20;;;;;;;14.52;4.47;;;;;;;;;;5033922;28;20057;-73
2023/07/02 04:38:46;;;;;;;13.35;4.30;;;;;;;;;;5027453;28;20425;-73
2023/07/02 04:41:12;;;;;;;13.95;4.15;;;;;;;;;;5033279;28;20472;-73
2023/07/02 04:43:39;;;;;;;13.25;4.85;;;;;;;;;;5021618;28;20060;-73
2023/07/02 04:46:07;;;;;;;12.55;4.35;;;;;;;;;;5033100;28;20123;-73
2023/07/02 04:48:33;;;;;;;14.48;4.80;;;;;;;;;;5014310;28;20025;-73
2023/07/02 04:50:59;;;;;;;15.05;4.78;;;;;;;;;;5027268;28;20025;-73
2023/07/02 04:53:25;;;;;;;12.88;4.30;;;;;;;;;;5013000;28;20022;-73
2023/07/02 04:55:51;;;;;;;13.07;4.50;;;;;;;;;;5010159;28;20025;-73
2023/07/02 04:58:17;;;;;;;17.67;3.17;;;;;;;;;;5013399;28;20708;-73
2023/07/02 05:00:43;;;;;;;14.02;5.40;;;;;;;;;;5015080;28;20113;-73
2023/07/02 05:03:10;;;;;;;8.10;4.35;;;;;;;;;;5022532;28;20514;-73
2023/07/02 05:05:36;;;;;;;10.40;4.15;;;;;;;;;;5033355;28;20032;-73
2023/07/02 05:08:04;;;;;;;14.32;4.55;;;;;;;;;;5033311;28;20029;-73
2023/07/02 05:10:30;;;;;;;16.80;4.93;;;;;;;;;;5031919;28;20033;-73
2023/07/02 05:12:56;;;;;;;11.77;4.10;;;;;;;;;;5013523;28;20018;-73
2023/07/02 05:15:22;;;;;;;11.52;4.10;;;;;;;;;;5028655;28;20400;-73
2023/07/02 05:17:48;;;;;;;13.45;4.68;;;;;;;;;;5032040;28;20488;-73
2023/07/02 05:20:14;;;;;;;13.85;4.00;;;;;;;;;;5017159;28;20076;-73
2023/07/02 05:22:40;;;;;;;14.55;4.00;;;;;;;;;;5012412;28;20034;-73
2023/07/02 05:25:06;;;;;;;8.65;3.70;;;;;;;;;;5012545;28;20033;-73
2023/07/02 05:27:32;;;;;;;14.32;4.03;;;;;;;;;;5012433;28;20038;-73
2023/07/02 05:29:58;;;;;;;10.77;4.70;;;;;;;;;;5027499;28;20025;-73
2023/07/02 05:32:24;;;;;;;15.00;3.90;;;;;;;;;;5032543;28;20492;-74
2023/07/02 05:34:50;;;;;;;9.98;4.00;;;;;;;;;;5030810;28;20029;-73
2023/07/02 05:37:16;;;;;;;10.55;3.72;;;;;;;;;;5013351;28;20034;-73
2023/07/02 05:39:43;;;;;;;13.20;4.15;;;;;;;;;;5027816;28;20104;-73
2023/07/02 05:42:09;;;;;;;14.05;4.30;;;;;;;;;;5021703;28;20014;-73
2023/07/02 05:44:34;;;;;;;12.32;4.07;;;;;;;;;;5016531;28;20552;-73
2023/07/02 05:47:01;;;;;;;11.65;3.80;;;;;;;;;;5012821;28;20041;-73
2023/07/02 05:49:27;;;;;;;12.50;4.05;;;;;;;;;;5014900;28;20033;-73
2023/07/02 05:51:53;;;;;;;8.52;3.33;;;;;;;;;;5030635;28;20380;-73
2023/07/02 05:54:19;;;;;;;8.50;3.35;;;;;;;;;;5018093;28;20030;-73
2023/07/02 05:56:45;;;;;;;11.60;3.95;;;;;;;;;;5012873;28;20037;-74
2023/07/02 05:59:14;;;;;;;9.30;3.00;;;;;;;;;;5012917;28;20053;-74
2023/07/02 06:01:40;;;;;;;10.25;3.17;;;;;;;;;;5012997;28;20026;-74
2023/07/02 06:04:06;;;;;;;8.95;3.00;;;;;;;;;;5013174;28;20104;-74
2023/07/02 06:06:32;;;;;;;7.30;3.20;;;;;;;;;;5012568;28;20068;-74
2023/07/02 06:08:58;;;;;;;9.98;3.35;;;;;;;;;;5013697;28;20026;-74
2023/07/02 06:11:24;;;;;;;6.07;2.00;;;;;;;;;;5024053;28;20084;-74
2023/07/02 06:13:50;;;;;;;7.75;2.45;;;;;;;;;;5025614;28;20405;-73
2023/07/02 06:16:16;;;;;;;8.77;3.05;;;;;;;;;;5012518;28;20061;-73
2023/07/02 06:18:42;;;;;;;8.50;2.63;;;;;;;;;;5001036;28;20037;-74
2023/07/02 06:21:08;;;;;;;8.20;2.80;;;;;;;;;;5024005;28;20018;-74
2023/07/02 06:23:44;;;;;;;11.57;2.85;;;;;;;;;;4999269;28;20553;-74
2023/07/02 06:26:10;;;;;;;9.48;3.10;;;;;;;;;;5022023;28;20037;-74
2023/07/02 06:28:36;;;;;;;7.57;2.75;;;;;;;;;;5031352;28;20022;-74
2023/07/02 06:31:03;;;;;;;8.82;3.45;;;;;;;;;;5032228;28;20033;-74
2023/07/02 06:33:29;;;;;;;10.43;3.17;;;;;;;;;;5015213;28;20030;-74
2023/07/02 06:35:55;;;;;;;12.15;3.63;;;;;;;;;;5022684;28;20017;-74
2023/07/02 06:38:21;;;;;;;7.93;2.67;;;;;;;;;;5029630;28;20476;-73
2023/07/02 06:40:47;;;;;;;9.27;2.92;;;;;;;;;;5032070;28;20053;-74
2023/07/02 06:43:13;;;;;;;8.57;2.97;;;;;;;;;;5030991;28;20054;-74
2023/07/02 06:45:39;;;;;;;9.90;2.85;;;;;;;;;;5021565;28;20569;-74
2023/07/02 06:48:05;;;;;;;9.30;2.72;;;;;;;;;;5012245;28;20508;-74
2023/07/02 06:50:31;;;;;;;10.98;3.40;;;;;;;;;;5012135;28;20030;-74
2023/07/02 06:52:57;;;;;;;7.18;2.70;;;;;;;;;;5013875;28;20080;-74
2023/07/02 06:55:23;;;;;;;9.18;3.22;;;;;;;;;;5023815;28;20029;-74
2023/07/02 06:57:49;;;;;;;10.30;3.30;;;;;;;;;;5021415;28;20045;-74
2023/07/02 07:00:16;;;;;;;12.30;3.00;;;;;;;;;;5035799;28;20033;-74
2023/07/02 07:02:42;;;;;;;10.43;2.90;;;;;;;;;;5019108;28;20026;-74
2023/07/02 07:05:09;;;;;;;8.13;3.55;;;;;;;;;;5016019;28;20084;-74
2023/07/02 07:07:35;;;;;;;6.22;3.10;;;;;;;;;;5033211;28;20377;-74
2023/07/02 07:10:01;;;;;;;10.43;3.45;;;;;;;;;;5025033;28;20041;-74
2023/07/02 07:12:27;;;;;;;11.02;3.08;;;;;;;;;;5019461;28;20022;-74
2023/07/02 07:14:53;;;;;;;10.60;3.60;;;;;;;;;;5035433;28;20025;-74
2023/07/02 07:17:20;;;;;;;9.00;3.40;;;;;;;;;;5018280;28;20415;-74
2023/07/02 07:19:46;;;;;;;8.13;3.10;;;;;;;;;;5015620;28;20535;-74
2023/07/02 07:22:12;;;;;;;8.57;3.33;;;;;;;;;;5015446;28;20121;-74
2023/07/02 07:24:38;;;;;;;8.38;3.40;;;;;;;;;;5015991;28;20532;-74
2023/07/02 07:27:04;;;;;;;9.02;3.13;;;;;;;;;;5019638;28;20109;-74
2023/07/02 07:29:30;;;;;;;11.15;3.75;;;;;;;;;;5024473;28;20010;-74
2023/07/02 07:31:56;;;;;;;10.20;3.33;;;;;;;;;;4996609;28;20030;-74
2023/07/02 07:34:22;;;;;;;11.82;3.60;;;;;;;;;;5017760;28;20061;-74
2023/07/02 07:36:48;;;;;;;7.65;3.13;;;;;;;;;;5013281;28;20623;-74
2023/07/02 07:39:14;;;;;;;10.77;3.88;;;;;;;;;;5006272;28;20022;-74
2023/07/02 07:41:40;;;;;;;9.10;3.72;;;;;;;;;;5002611;28;20463;-74
2023/07/02 07:44:06;;;;;;;8.93;3.15;;;;;;;;;;5015207;28;20029;-74
2023/07/02 07:46:32;;;;;;;6.68;3.15;;;;;;;;;;5024041;28;20474;-74
2023/07/02 07:48:58;;;;;;;11.40;3.35;;;;;;;;;;5006471;28;20030;-74
2023/07/02 07:51:24;;;;;;;7.30;3.00;;;;;;;;;;5032634;28;20448;-74
2023/07/02 07:53:50;;;;;;;9.18;3.28;;;;;;;;;;5034088;28;20025;-74
2023/07/02 07:56:16;;;;;;;5.60;2.88;;;;;;;;;;5034551;28;20087;-74
2023/07/02 07:58:42;;;;;;;7.90;3.38;;;;;;;;;;5023751;28;20440;-74
2023/07/02 08:01:08;;;;;;;10.75;2.88;;;;;;;;;;5028210;28;20022;-74
2023/07/02 08:03:37;;;;;;;15.18;3.72;;;;;;;;;;5014775;28;20075;-74
2023/07/02 08:06:03;;;;;;;8.27;3.30;;;;;;;;;;5027055;28;20127;-74
2023/07/02 08:08:29;;;;;;;7.32;3.05;;;;;;;;;;5025235;28;20738;-74
2023/07/02 08:10:55;;;;;;;8.00;3.00;;;;;;;;;;5034102;28;20018;-74
2023/07/02 08:13:21;;;;;;;10.60;3.70;;;;;;;;;;5034389;28;20029;-74
2023/07/02 08:15:47;;;;;;;7.40;3.10;;;;;;;;;;5016790;28;20105;-74
2023/07/02 08:18:14;;;;;;;8.32;3.65;;;;;;;;;;5025230;28;20033;-74
2023/07/02 08:20:40;;;;;;;9.27;2.95;;;;;;;;;;5030048;28;20052;-74
2023/07/02 08:23:06;;;;;;;8.02;3.30;;;;;;;;;;5014470;28;20076;-74
2023/07/02 08:25:32;;;;;;;9.52;2.35;;;;;;;;;;5027563;28;20034;-74
2023/07/02 08:27:58;;;;;;;9.00;3.00;;;;;;;;;;5025206;28;20065;-74
2023/07/02 08:30:24;;;;;;;6.03;2.30;;;;;;;;;;5021426;28;20025;-74
2023/07/02 08:32:50;;;;;;;6.15;2.55;;;;;;;;;;5011888;28;20474;-74
2023/07/02 08:35:16;;;;;;;7.72;2.25;;;;;;;;;;5008274;28;20038;-74
2023/07/02 08:37:42;;;;;;;8.50;3.00;;;;;;;;;;5005573;28;20026;-74
2023/07/02 08:40:16;;;;;;;9.95;3.55;;;;;;;;;;5014208;28;20101;-74
2023/07/02 08:42:42;;;;;;;8.63;2.63;;;;;;;;;;5026964;28;20022;-74
2023/07/02 08:45:10;;;;;;;6.10;2.67;;;;;;;;;;5033688;28;20029;-74
2023/07/02 08:47:36;;;;;;;10.93;3.17;;;;;;;;;;5033808;28;20468;-74
2023/07/02 08:50:04;;;;;;;7.97;2.75;;;;;;;;;;5013710;28;20033;-74
2023/07/02 08:52:33;;;;;;;7.88;2.83;;;;;;;;;;5014386;28;20022;-74
2023/07/02 08:54:59;;;;;;;9.60;2.83;;;;;;;;;;5007600;28;20085;-74
2023/07/02 08:57:25;;;;;;;9.15;3.40;;;;;;;;;;5019001;28;20476;-74
2023/07/02 08:59:51;;;;;;;10.25;3.17;;;;;;;;;;5027121;28;20112;-74
2023/07/02 09:02:17;;;;;;;11.55;3.45;;;;;;;;;;5014534;28;20544;-74
2023/07/02 09:04:43;;;;;;;10.25;3.08;;;;;;;;;;5033392;28;20468;-74
2023/07/02 09:07:10;;;;;;;7.47;2.90;;;;;;;;;;5032958;28;20055;-74
2023/07/02 09:09:49;;;;;;;10.30;3.50;;;;;;;;;;5033459;28;20037;-74
2023/07/02 09:12:28;;;;;;;8.67;3.40;;;;;;;;;;5019537;28;20052;-74
2023/07/02 09:14:58;;;;;;;8.63;2.75;;;;;;;;;;5033134;28;20354;-74
2023/07/02 09:17:28;;;;;;;10.27;3.55;;;;;;;;;;5015429;28;20033;-74
2023/07/02 09:19:54;;;;;;;9.40;3.65;;;;;;;;;;5025324;28;20079;-74
2023/07/02 09:22:21;;;;;;;8.15;3.45;;;;;;;;;;5014526;28;20030;-74
2023/07/02 09:24:54;;;;;;;10.25;3.42;;;;;;;;;;5013560;28;20018;-74
2023/07/02 09:27:20;;;;;;;11.05;3.60;;;;;;;;;;5013247;28;20041;-74
2023/07/02 09:29:51;;;;;;;7.13;3.00;;;;;;;;;;5012967;28;20018;-74
2023/07/02 09:32:25;;;;;;;9.10;3.00;;;;;;;;;;5025768;28;20025;-74
2023/07/02 09:34:51;;;;;;;7.50;2.70;;;;;;;;;;5026203;28;20624;-74
2023/07/02 09:37:17;;;;;;;9.63;3.45;;;;;;;;;;5013147;28;20105;-74
2023/07/02 09:39:43;;;;;;;8.50;3.05;;;;;;;;;;5014807;28;20685;-74
2023/07/02 09:42:10;;;;;;;9.13;3.13;;;;;;;;;;5031893;28;20057;-74
2023/07/02 09:44:36;;;;;;;7.60;3.10;;;;;;;;;;5031960;28;20026;-74
2023/07/02 09:47:04;;;;;;;12.13;3.45;;;;;;;;;;5032803;28;20030;-74
2023/07/02 09:49:33;;;;;;;7.40;3.10;;;;;;;;;;5036047;28;20483;-74
2023/07/02 09:52:01;;;;;;;6.72;2.85;;;;;;;;;;5022649;28;20040;-74
2023/07/02 09:54:28;;;;;;;7.85;2.67;;;;;;;;;;5017003;28;20029;-74
2023/07/02 09:56:54;;;;;;;9.43;3.30;;;;;;;;;;5022529;28;20036;-74
2023/07/02 09:59:20;;;;;;;10.55;3.00;;;;;;;;;;5030242;28;20496;-74
2023/07/02 10:01:47;;;;;;;7.50;2.60;;;;;;;;;;5002257;28;20437;-74
2023/07/02 10:04:18;;;;;;;8.10;2.97;;;;;;;;;;5011257;28;20516;-74
2023/07/02 10:06:47;;;;;;;9.00;2.50;;;;;;;;;;5032600;28;20026;-74
2023/07/02 10:09:13;;;;;;;8.48;2.70;;;;;;;;;;5018758;28;20021;-74
2023/07/02 10:11:39;;;;;;;8.07;2.45;;;;;;;;;;5032382;28;20033;-74
2023/07/02 10:14:05;;;;;;;5.90;2.25;;;;;;;;;;5032341;28;20029;-74
2023/07/02 10:16:32;;;;;;;6.85;2.42;;;;;;;;;;5021556;28;20157;-74
2023/07/02 10:19:10;;;;;;;6.18;2.38;;;;;;;;;;5012798;28;20022;-74
2023/07/02 10:21:36;;;;;;;6.15;2.15;;;;;;;;;;5024366;28;20026;-74
2023/07/02 10:24:12;;;;;;;10.95;2.47;;;;;;;;;;5017756;28;20074;-74
2023/07/02 10:26:39;;;;;;;8.82;2.60;;;;;;;;;;5019118;28;20082;-74
2023/07/02 10:29:06;;;;;;;8.60;2.60;;;;;;;;;;5012116;28;20125;-74
2023/07/02 10:31:32;;;;;;;9.82;2.42;;;;;;;;;;5012870;28;20036;-74
2023/07/02 10:33:58;;;;;;;7.25;2.13;;;;;;;;;;5032162;28;20030;-74
2023/07/02 10:36:25;;;;;;;5.88;1.88;;;;;;;;;;5030202;28;20127;-74
2023/07/02 10:38:52;;;;;;;7.47;1.98;;;;;;;;;;5023364;28;20045;-74
2023/07/02 10:41:44;;;;;;;5.00;2.05;;;;;;;;;;5014427;28;20028;-74
2023/07/02 10:44:10;;;;;;;6.82;2.08;;;;;;;;;;5030174;28;20399;-74
2023/07/02 10:46:49;;;;;;;4.57;1.90;;;;;;;;;;5014319;28;20488;-74
2023/07/02 10:49:17;;;;;;;5.00;2.50;;;;;;;;;;5012222;28;20113;-74
2023/07/02 10:51:43;;;;;;;7.57;2.00;;;;;;;;;;5013524;28;20048;-74
2023/07/02 10:54:09;;;;;;;7.63;2.85;;;;;;;;;;5023807;28;20083;-74
2023/07/02 10:56:35;;;;;;;8.27;2.22;;;;;;;;;;5031715;28;20071;-74
2023/07/02 10:59:01;;;;;;;7.55;2.33;;;;;;;;;;5031355;28;20128;-74
2023/07/02 11:01:27;;;;;;;8.40;2.20;;;;;;;;;;5024660;28;20749;-74
2023/07/02 11:04:00;;;;;;;7.88;2.40;;;;;;;;;;5012034;28;20109;-74
2023/07/02 11:06:30;;;;;;;9.13;2.97;;;;;;;;;;5031885;28;20030;-74
2023/07/02 11:08:56;;;;;;;7.15;2.63;;;;;;;;;;5031349;28;20028;-74
2023/07/02 11:11:23;;;;;;;6.15;2.42;;;;;;;;;;5023878;28;20076;-74
2023/07/02 11:13:50;;;;;;;8.35;2.60;;;;;;;;;;5025043;28;20360;-74
2023/07/02 11:16:19;;;;;;;7.32;2.80;;;;;;;;;;5031774;28;20057;-74
2023/07/02 11:18:45;;;;;;;7.88;2.55;;;;;;;;;;5029700;28;20468;-74
2023/07/02 11:21:11;;;;;;;6.78;2.63;;;;;;;;;;5031793;28;20032;-74
2023/07/02 11:23:37;;;;;;;7.57;2.65;;;;;;;;;;5031087;28;20028;-74
2023/07/02 11:26:04;;;;;;;7.25;2.90;;;;;;;;;;5022694;28;20500;-74
2023/07/02 11:28:31;;;;;;;8.52;2.13;;;;;;;;;;5026923;28;20075;-74
2023/07/02 11:30:57;;;;;;;5.97;2.72;;;;;;;;;;5022571;28;20057;-74
2023/07/02 11:33:39;;;;;;;7.20;2.80;;;;;;;;;;5013919;28;20022;-74
2023/07/02 11:36:06;;;;;;;8.25;2.78;;;;;;;;;;5020106;28;20084;-74
2023/07/02 11:38:33;;;;;;;10.18;3.03;;;;;;;;;;5016640;28;20467;-74
2023/07/02 11:40:59;;;;;;;10.35;2.92;;;;;;;;;;5030253;28;20538;-74
2023/07/02 11:43:26;;;;;;;6.28;2.20;;;;;;;;;;5034692;28;20034;-74
2023/07/02 11:45:52;;;;;;;9.00;2.97;;;;;;;;;;5034829;28;20076;-74
2023/07/02 11:48:18;;;;;;;9.65;2.92;;;;;;;;;;5017121;28;20018;-74
2023/07/02 11:50:44;;;;;;;11.00;3.78;;;;;;;;;;5003828;28;20023;-74
2023/07/02 11:53:10;;;;;;;7.55;2.53;;;;;;;;;;5006418;28;20021;-74
2023/07/02 11:55:37;;;;;;;10.77;3.20;;;;;;;;;;5023278;28;20029;-74
2023/07/02 11:58:03;;;;;;;10.98;3.40;;;;;;;;;;5014275;28;20058;-74
2023/07/02 12:00:29;;;;;;;8.75;3.22;;;;;;;;;;5015226;28;20109;-74
2023/07/02 12:02:55;;;;;;;9.70;3.20;;;;;;;;;;5020235;28;20422;-74
2023/07/02 12:05:21;;;;;;;9.65;3.85;;;;;;;;;;5034315;28;20029;-74
2023/07/02 12:07:47;;;;;;;7.90;3.30;;;;;;;;;;5016051;28;20120;-74
2023/07/02 12:10:13;;;;;;;9.77;3.60;;;;;;;;;;5002656;28;20149;-74
2023/07/02 12:12:39;;;;;;;8.95;3.85;;;;;;;;;;5013445;28;20037;-74
2023/07/02 12:15:05;;;;;;;12.35;4.03;;;;;;;;;;5026735;28;20026;-74
2023/07/02 12:17:31;;;;;;;12.35;3.70;;;;;;;;;;5015307;28;20033;-74
2023/07/02 12:19:58;;;;;;;13.02;4.65;;;;;;;;;;5026800;28;20148;-74
2023/07/02 12:22:24;;;;;;;7.05;3.47;;;;;;;;;;5014775;28;20065;-74
2023/07/02 12:24:53;;;;;;;8.98;3.25;;;;;;;;;;5014807;28;20026;-74
2023/07/02 12:27:19;;;;;;;8.75;3.45;;;;;;;;;;5014595;28;20037;-74
2023/07/02 12:29:45;;;;;;;9.90;3.90;;;;;;;;;;5001776;28;20038;-74
2023/07/02 12:32:11;;;;;;;10.73;3.90;;;;;;;;;;4995105;28;20033;-74
2023/07/02 12:34:37;;;;;;;12.38;3.97;;;;;;;;;;4994717;28;20027;-74
2023/07/02 12:37:03;;;;;;;12.68;4.75;;;;;;;;;;4994765;28;20035;-74
2023/07/02 12:39:29;;;;;;;10.93;3.65;;;;;;;;;;5021517;28;20026;-74
2023/07/02 12:41:55;;;;;;;11.70;3.55;;;;;;;;;;5014784;28;20084;-74
2023/07/02 12:44:21;;;;;;;9.00;3.97;;;;;;;;;;5014037;28;20460;-74
2023/07/02 12:46:47;;;;;;;10.93;4.13;;;;;;;;;;5014003;28;20036;-74
2023/07/02 12:49:13;;;;;;;10.90;3.45;;;;;;;;;;5014343;28;20034;-74
2023/07/02 12:51:39;;;;;;;11.75;3.90;;;;;;;;;;5034146;28;20029;-74
2023/07/02 12:54:05;;;;;;;10.45;4.45;;;;;;;;;;5020715;28;20045;-74
2023/07/02 12:56:31;;;;;;;10.65;3.67;;;;;;;;;;5019928;28;20026;-74
2023/07/02 12:58:57;;;;;;;10.13;3.67;;;;;;;;;;5020789;28;20105;-74
2023/07/02 13:01:24;;;;;;;8.38;2.78;;;;;;;;;;5013928;28;20495;-74
2023/07/02 13:03:50;;;;;;;10.93;3.67;;;;;;;;;;5026781;28;20508;-74
2023/07/02 13:06:16;;;;;;;10.23;3.88;;;;;;;;;;5033209;28;20061;-74
2023/07/02 13:08:42;;;;;;;9.43;3.40;;;;;;;;;;5033499;28;20030;-74
2023/07/02 13:11:08;;;;;;;9.88;4.00;;;;;;;;;;5027036;28;20029;-74
2023/07/02 13:13:38;;;;;;;9.63;3.55;;;;;;;;;;5026556;28;20029;-74
2023/07/02 13:16:04;;;;;;;7.78;3.85;;;;;;;;;;5001077;28;20030;-74
2023/07/02 13:18:30;;;;;;;9.10;3.40;;;;;;;;;;5013749;28;20025;-74
2023/07/02 13:20:56;;;;;;;10.23;3.60;;;;;;;;;;4994261;28;20030;-74
2023/07/02 13:23:22;;;;;;;9.25;3.78;;;;;;;;;;4993946;28;20057;-74
2023/07/02 13:25:48;;;;;;;9.77;3.75;;;;;;;;;;4993815;28;20377;-74
2023/07/02 13:28:14;;;;;;;8.82;4.00;;;;;;;;;;5020069;28;20037;-74
2023/07/02 13:30:40;;;;;;;10.50;3.80;;;;;;;;;;5033185;28;20034;-74
2023/07/02 13:33:06;;;;;;;7.82;3.20;;;;;;;;;;5032649;28;20060;-74
2023/07/02 13:35:32;;;;;;;6.65;3.10;;;;;;;;;;5013272;28;20031;-74
2023/07/02 13:37:59;;;;;;;10.13;3.83;;;;;;;;;;5026489;28;20171;-74
2023/07/02 13:40:25;;;;;;;8.70;3.60;;;;;;;;;;5007955;28;20017;-74
2023/07/02 13:42:51;;;;;;;9.32;3.35;;;;;;;;;;5019618;28;20025;-74
2023/07/02 13:45:17;;;;;;;11.07;2.95;;;;;;;;;;5020062;28;20353;-74
2023/07/02 13:47:44;;;;;;;9.40;3.13;;;;;;;;;;5031805;28;20034;-74
2023/07/02 13:50:11;;;;;;;7.28;3.65;;;;;;;;;;5025209;28;20021;-74
2023/07/02 13:52:37;;;;;;;11.73;4.20;;;;;;;;;;5026089;28;20029;-74
2023/07/02 13:55:03;;;;;;;5.78;3.00;;;;;;;;;;5025724;28;20528;-74
2023/07/02 13:57:29;;;;;;;9.48;3.65;;;;;;;;;;5026091;28;20021;-74
2023/07/02 13:59:56;;;;;;;9.25;3.47;;;;;;;;;;5012475;28;20128;-74
2023/07/02 14:02:22;;;;;;;10.35;3.97;;;;;;;;;;5013097;28;20018;-74
2023/07/02 14:04:48;;;;;;;8.98;3.83;;;;;;;;;;5012126;28;20033;-74
2023/07/02 14:07:15;;;;;;;8.30;3.28;;;;;;;;;;5012735;28;20042;-74
2023/07/02 14:09:41;;;;;;;10.45;4.00;;;;;;;;;;5004987;28;20023;-74
2023/07/02 14:12:07;;;;;;;9.63;3.42;;;;;;;;;;5007363;28;20029;-74
2023/07/02 14:14:33;;;;;;;8.50;3.63;;;;;;;;;;5000650;28;20040;-74
2023/07/02 14:16:59;;;;;;;10.45;3.58;;;;;;;;;;5026720;28;20376;-74
2023/07/02 14:19:25;;;;;;;9.57;3.55;;;;;;;;;;5031934;28;20468;-74
2023/07/02 14:21:51;;;;;;;6.45;3.05;;;;;;;;;;5018115;28;20080;-74
2023/07/02 14:24:17;;;;;;;7.05;3.10;;;;;;;;;;5020113;28;20097;-74
2023/07/02 14:26:44;;;;;;;11.25;3.65;;;;;;;;;;5031523;28;20068;-74
2023/07/02 14:29:10;;;;;;;9.45;3.53;;;;;;;;;;5032484;28;20022;-74
2023/07/02 14:31:37;;;;;;;10.13;3.85;;;;;;;;;;5030635;28;20040;-74